Ertholm — OVJX — position and weather

sailwx.info

Track history (hours):
 
Tides and Currents Weather Stations Pressure Air Temp Water Temp Dewpoint Dewpoint Depression Visibility Wind Speed Wind Dir Waves Ship Positions

Ertholm

Last reported at 2015-Jul-02 22:33 UTC. Time now 2015-Jul-02 23:09 UTC.
Position N 55°13' E 014°58'.

Length 38 m; draft 2.3 m.

Type: Ship. MMSI: 219000751.

Date/timePositionNaut miles runAvg speedWind from/ knotsBaromVisibWave heightAir tempDewpointWater temp
2015-Jul-02 22:33N 55°13' E 014°58'0 0.0
2015-Jul-02 21:33N 55°13' E 014°58'0 0.0
2015-Jul-02 20:33N 55°13' E 014°58'0 0.0
2015-Jul-02 19:33N 55°13' E 014°58'0 0.0
2015-Jul-02 18:33N 55°13' E 014°58'0 0.0
2015-Jul-02 17:33N 55°13' E 014°58'0 0.0
2015-Jul-02 16:33N 55°13' E 014°58'0 0.0
2015-Jul-02 15:33N 55°13' E 014°58'7 7.0
2015-Jul-02 14:33N 55°18' E 015°07'2 2.1
2015-Jul-02 13:34N 55°16' E 015°05'1 0.9
2015-Jul-02 12:33N 55°16' E 015°03'6 5.8
2015-Jul-02 11:33N 55°19' E 015°11'10 9.7
2015-Jul-02 10:33N 55°13' E 014°58'7 6.6
2015-Jul-02 09:33N 55°17' E 015°07'1 1.2
2015-Jul-02 08:34N 55°17' E 015°05'6 5.7
2015-Jul-02 07:33N 55°13' E 014°58'0 0.0
2015-Jul-02 06:33N 55°13' E 014°58'0 0.0
2015-Jul-02 05:33N 55°13' E 014°58'0 0.0
2015-Jul-02 04:33N 55°13' E 014°58'0 0.0
2015-Jul-02 03:33N 55°13' E 014°58'0 0.0
2015-Jul-02 02:33N 55°13' E 014°58'0 0.0
2015-Jul-02 01:33N 55°13' E 014°58'0 0.0
2015-Jul-02 00:33N 55°13' E 014°58'0 0.0
2015-Jul-01 23:33N 55°13' E 014°58'0 0.0
2015-Jul-01 22:33N 55°13' E 014°58'0 0.0
2015-Jul-01 21:17N 55°13' E 014°58'0 0.0
2015-Jul-01 20:33N 55°13' E 014°58'0 0.0
2015-Jul-01 19:33N 55°13' E 014°58'0 0.0
2015-Jul-01 18:33N 55°13' E 014°58'0 0.0
2015-Jul-01 17:30N 55°13' E 014°58'0 0.0
2015-Jul-01 16:33N 55°13' E 014°58'0 0.0
2015-Jul-01 15:33N 55°13' E 014°58'7 6.7
2015-Jul-01 14:33N 55°17' E 015°07'2 2.1
2015-Jul-01 13:33N 55°16' E 015°04'1 1.0
2015-Jul-01 12:33N 55°15' E 015°02'6 6.2
2015-Jul-01 11:33N 55°19' E 015°11'10 9.7
2015-Jul-01 10:33N 55°13' E 014°58'6 6.5
2015-Jul-01 09:33N 55°17' E 015°07'1 0.7
2015-Jul-01 08:33N 55°17' E 015°06'6 6.0
2015-Jul-01 07:33N 55°13' E 014°58'0 0.0
2015-Jul-01 06:33N 55°13' E 014°58'0 0.0
2015-Jul-01 05:33N 55°13' E 014°58'0 0.0
2015-Jul-01 04:33N 55°13' E 014°58'0 0.0
2015-Jul-01 03:33N 55°13' E 014°58'0 0.0
2015-Jul-01 02:33N 55°13' E 014°58'0 0.0
2015-Jul-01 01:33N 55°13' E 014°58'0 0.0
2015-Jul-01 00:33N 55°13' E 014°58'0 0.0
2015-Jun-30 23:33N 55°13' E 014°58'0 0.0
2015-Jun-30 22:33N 55°13' E 014°58'0 0.0
2015-Jun-30 21:33N 55°13' E 014°58'0 0.0
2015-Jun-30 20:33N 55°13' E 014°58'0 0.0
2015-Jun-30 19:33N 55°13' E 014°58'0 0.0
2015-Jun-30 18:33N 55°13' E 014°58'0 0.0
2015-Jun-30 17:33N 55°13' E 014°58'0 0.0
2015-Jun-30 16:33N 55°13' E 014°58'0 0.0
2015-Jun-30 15:33N 55°13' E 014°58'7 6.8
2015-Jun-30 14:33N 55°18' E 015°07'3 3.2
2015-Jun-30 13:33N 55°17' E 015°01'2 2.0
2015-Jun-30 12:33N 55°15' E 015°03'6 5.9
2015-Jun-30 11:33N 55°19' E 015°11'9 9.5
2015-Jun-30 10:33N 55°13' E 014°59'7 6.8
2015-Jun-30 09:33N 55°18' E 015°07'1 1.3
2015-Jun-30 08:33N 55°17' E 015°05'6 5.9
2015-Jun-30 07:33N 55°13' E 014°58'0 0.0
2015-Jun-30 06:33N 55°13' E 014°58'0 0.0
2015-Jun-30 05:33N 55°13' E 014°58'0 0.0
2015-Jun-30 04:33N 55°13' E 014°58'0 0.0
2015-Jun-30 03:33N 55°13' E 014°58'0 0.0
2015-Jun-30 02:33N 55°13' E 014°58'0 0.0
2015-Jun-30 01:33N 55°13' E 014°58'0 0.0
2015-Jun-30 00:33N 55°13' E 014°58'0 0.0
2015-Jun-29 23:33N 55°13' E 014°58'0 0.0
2015-Jun-29 22:33N 55°13' E 014°58'0 0.0
2015-Jun-29 21:33N 55°13' E 014°58'0 0.0
2015-Jun-29 20:33N 55°13' E 014°58'0 0.0
2015-Jun-29 19:33N 55°13' E 014°58'0 0.0
2015-Jun-29 18:33N 55°13' E 014°58'0 0.0
2015-Jun-29 17:33N 55°13' E 014°58'0 0.0
2015-Jun-29 16:33N 55°13' E 014°58'0 0.0
2015-Jun-29 15:33N 55°13' E 014°58'7 7.2
2015-Jun-29 14:33N 55°18' E 015°07'3 3.1
2015-Jun-29 13:33N 55°15' E 015°04'0 0.4
2015-Jun-29 12:33N 55°16' E 015°04'5 5.4
2015-Jun-29 11:33N 55°19' E 015°11'9 9.5
2015-Jun-29 10:33N 55°13' E 014°59'6 5.9
2015-Jun-29 09:33N 55°17' E 015°06'0 0.1
2015-Jun-29 08:33N 55°17' E 015°06'6 6.1
2015-Jun-29 07:33N 55°13' E 014°58'0 0.0
2015-Jun-29 06:33N 55°13' E 014°58'0 0.0
2015-Jun-29 05:33N 55°13' E 014°58'0 0.0
2015-Jun-29 04:33N 55°13' E 014°58'0 0.0
2015-Jun-29 03:32N 55°13' E 014°58'0 0.0
2015-Jun-29 02:33N 55°13' E 014°58'0 0.0
2015-Jun-29 01:33N 55°13' E 014°58'0 0.0
2015-Jun-29 00:33N 55°13' E 014°58'0 0.0
2015-Jun-28 23:33N 55°13' E 014°58'0 0.0
2015-Jun-28 22:33N 55°13' E 014°58'0 0.0
2015-Jun-28 21:33N 55°13' E 014°58'0 0.0
2015-Jun-28 20:33N 55°13' E 014°58'0 0.0
2015-Jun-28 19:33N 55°13' E 014°58'0 0.0
2015-Jun-28 18:34N 55°13' E 014°58'0 0.0
2015-Jun-28 17:33N 55°13' E 014°58'0 0.0
2015-Jun-28 16:33N 55°13' E 014°58'0 0.0
2015-Jun-28 15:33N 55°13' E 014°58'7 6.9
2015-Jun-28 14:33N 55°17' E 015°07'2 2.2
2015-Jun-28 13:33N 55°16' E 015°04'1 0.6
2015-Jun-28 12:33N 55°15' E 015°04'6 5.6
2015-Jun-28 11:33N 55°19' E 015°11'9 9.4
2015-Jun-28 10:33N 55°13' E 014°59'6 5.6
2015-Jun-28 09:33N 55°17' E 015°06'0 0.2
2015-Jun-28 08:33N 55°17' E 015°06'6 6.1
2015-Jun-28 07:33N 55°13' E 014°58'0 0.0
2015-Jun-28 06:33N 55°13' E 014°58'0 0.0
2015-Jun-28 05:33N 55°13' E 014°58'0 0.0
2015-Jun-28 04:33N 55°13' E 014°58'0 0.0
2015-Jun-28 03:33N 55°13' E 014°58'0 0.0
2015-Jun-28 02:33N 55°13' E 014°58'0 0.0
2015-Jun-28 01:33N 55°13' E 014°58'0 0.0
2015-Jun-28 00:33N 55°13' E 014°58'0 0.0
2015-Jun-27 23:33N 55°13' E 014°58'0 0.0
2015-Jun-27 22:33N 55°13' E 014°58'0 0.0
2015-Jun-27 21:33N 55°13' E 014°58'0 0.0
2015-Jun-27 20:33N 55°13' E 014°58'0 0.0
2015-Jun-27 19:33N 55°13' E 014°58'0 0.0
2015-Jun-27 18:33N 55°13' E 014°58'0 0.0
2015-Jun-27 17:33N 55°13' E 014°58'0 0.0
2015-Jun-27 16:33N 55°13' E 014°58'0 0.0
2015-Jun-27 15:33N 55°13' E 014°58'7 6.6
2015-Jun-27 14:33N 55°17' E 015°07'2 2.2
2015-Jun-27 13:33N 55°16' E 015°04'0 0.3
2015-Jun-27 12:33N 55°16' E 015°03'6 5.7
2015-Jun-27 11:34N 55°19' E 015°11'9 9.3
2015-Jun-27 10:33N 55°13' E 014°59'6 5.7
2015-Jun-27 09:33N 55°17' E 015°06'0 0.3
2015-Jun-27 08:33N 55°17' E 015°06'6 6.0
2015-Jun-27 07:33N 55°13' E 014°58'0 0.0
2015-Jun-27 06:33N 55°13' E 014°58'0 0.0
2015-Jun-27 05:33N 55°13' E 014°58'0 0.0
2015-Jun-27 04:33N 55°13' E 014°58'0 0.0
2015-Jun-27 03:33N 55°13' E 014°58'0 0.0
2015-Jun-27 02:33N 55°13' E 014°58'0 0.0
2015-Jun-27 01:33N 55°13' E 014°58'0 0.0
2015-Jun-27 00:33N 55°13' E 014°58'0 0.0
2015-Jun-26 23:33N 55°13' E 014°58'0 0.0
2015-Jun-26 22:33N 55°13' E 014°58'0 0.0
2015-Jun-26 21:33N 55°13' E 014°58'0 0.0
2015-Jun-26 20:33N 55°13' E 014°58'0 0.0
2015-Jun-26 19:33N 55°13' E 014°58'0 0.0
2015-Jun-26 18:33N 55°13' E 014°58'0 0.0
2015-Jun-26 17:33N 55°13' E 014°58'0 0.0
2015-Jun-26 16:33N 55°13' E 014°58'0 0.0
2015-Jun-26 15:33N 55°13' E 014°58'7 7.0
2015-Jun-26 14:33N 55°18' E 015°07'2 2.4
2015-Jun-26 13:33N 55°16' E 015°04'0 0.3
2015-Jun-26 12:33N 55°16' E 015°04'5 5.0
2015-Jun-26 11:33N 55°19' E 015°11'9 9.4
2015-Jun-26 10:33N 55°13' E 014°59'8 8.5
2015-Jun-26 09:33N 55°19' E 015°10'4 3.5
2015-Jun-26 08:33N 55°17' E 015°04'6 5.8
2015-Jun-26 07:33N 55°13' E 014°58'0 0.0
2015-Jun-26 06:33N 55°13' E 014°58'0 0.0
2015-Jun-26 05:33N 55°13' E 014°58'0 0.0
2015-Jun-26 04:33N 55°13' E 014°58'0 0.0
2015-Jun-26 03:33N 55°13' E 014°58'0 0.0
2015-Jun-26 02:33N 55°13' E 014°58'0 0.0
2015-Jun-26 01:33N 55°13' E 014°58'0 0.0
2015-Jun-26 00:33N 55°13' E 014°58'0 0.0
2015-Jun-25 23:33N 55°13' E 014°58'0 0.0
2015-Jun-25 22:33N 55°13' E 014°58'0 0.0
2015-Jun-25 21:33N 55°13' E 014°58'0 0.0
2015-Jun-25 20:33N 55°13' E 014°58'0 0.0
2015-Jun-25 19:33N 55°13' E 014°58'0 0.0
2015-Jun-25 18:33N 55°13' E 014°58'0 0.0
2015-Jun-25 17:32N 55°13' E 014°58'0 0.0
2015-Jun-25 16:33N 55°13' E 014°58'0 0.0
2015-Jun-25 15:33N 55°13' E 014°58'7 7.4
2015-Jun-25 14:33N 55°17' E 015°09'4 3.8
2015-Jun-25 13:33N 55°17' E 015°02'2 1.8
2015-Jun-25 12:33N 55°15' E 015°04'5 5.5
2015-Jun-25 11:33N 55°19' E 015°11'9 9.4
2015-Jun-25 10:33N 55°13' E 014°58'6 5.8
2015-Jun-25 09:33N 55°17' E 015°07'2 1.8
2015-Jun-25 08:33N 55°17' E 015°04'6 5.6
2015-Jun-25 07:33N 55°13' E 014°58'0 0.0
2015-Jun-25 06:33N 55°13' E 014°58'0 0.0
2015-Jun-25 05:33N 55°13' E 014°58'0 0.0
2015-Jun-25 04:33N 55°13' E 014°58'0 0.0
2015-Jun-25 03:33N 55°13' E 014°58'0 0.0
2015-Jun-25 01:33N 55°13' E 014°58'0 0.0
2015-Jun-25 00:33N 55°13' E 014°58'0 0.0
2015-Jun-24 23:33N 55°13' E 014°58'0 0.0
2015-Jun-24 06:21N 55°13' E 014°58'0 0.0
2015-Jun-24 05:33N 55°13' E 014°58'0 0.0
2015-Jun-24 04:33N 55°13' E 014°58'0 0.0
2015-Jun-24 03:33N 55°13' E 014°58'0 0.0
2015-Jun-24 02:33N 55°13' E 014°58'0 0.0
2015-Jun-24 01:33N 55°13' E 014°58'0 0.0
2015-Jun-24 00:33N 55°13' E 014°58'0 0.0
2015-Jun-23 23:33N 55°13' E 014°58'0 0.0
2015-Jun-23 22:33N 55°13' E 014°58'0 0.0
2015-Jun-23 21:33N 55°13' E 014°58'0 0.0
2015-Jun-23 20:33N 55°13' E 014°58'0 0.0
2015-Jun-23 19:33N 55°13' E 014°58'0 0.0
2015-Jun-23 19:05N 55°13' E 014°58'  
Track history (hours):
 
Tides and Currents Weather Stations Pressure Air Temp Water Temp Dewpoint Dewpoint Depression Visibility Wind Speed Wind Dir Waves Ship Positions

Ertholm

Last reported at 2015-Jul-02 22:33 UTC. Time now 2015-Jul-02 23:09 UTC.
Position N 55°13' E 014°58'.

Length 38 m; draft 2.3 m.

Type: Ship. MMSI: 219000751.

Date/timePositionNaut miles runAvg speedWind from/ knotsBaromVisibWave heightAir tempDewpointWater temp
2015-Jul-02 22:33N 55°13' E 014°58'0 0.0
2015-Jul-02 21:33N 55°13' E 014°58'0 0.0
2015-Jul-02 20:33N 55°13' E 014°58'0 0.0
2015-Jul-02 19:33N 55°13' E 014°58'0 0.0
2015-Jul-02 18:33N 55°13' E 014°58'0 0.0
2015-Jul-02 17:33N 55°13' E 014°58'0 0.0
2015-Jul-02 16:33N 55°13' E 014°58'0 0.0
2015-Jul-02 15:33N 55°13' E 014°58'7 7.0
2015-Jul-02 14:33N 55°18' E 015°07'2 2.1
2015-Jul-02 13:34N 55°16' E 015°05'1 0.9
2015-Jul-02 12:33N 55°16' E 015°03'6 5.8
2015-Jul-02 11:33N 55°19' E 015°11'10 9.7
2015-Jul-02 10:33N 55°13' E 014°58'7 6.6
2015-Jul-02 09:33N 55°17' E 015°07'1 1.2
2015-Jul-02 08:34N 55°17' E 015°05'6 5.7
2015-Jul-02 07:33N 55°13' E 014°58'0 0.0
2015-Jul-02 06:33N 55°13' E 014°58'0 0.0
2015-Jul-02 05:33N 55°13' E 014°58'0 0.0
2015-Jul-02 04:33N 55°13' E 014°58'0 0.0
2015-Jul-02 03:33N 55°13' E 014°58'0 0.0
2015-Jul-02 02:33N 55°13' E 014°58'0 0.0
2015-Jul-02 01:33N 55°13' E 014°58'0 0.0
2015-Jul-02 00:33N 55°13' E 014°58'0 0.0
2015-Jul-01 23:33N 55°13' E 014°58'0 0.0
2015-Jul-01 22:33N 55°13' E 014°58'0 0.0
2015-Jul-01 21:17N 55°13' E 014°58'0 0.0
2015-Jul-01 20:33N 55°13' E 014°58'0 0.0
2015-Jul-01 19:33N 55°13' E 014°58'0 0.0
2015-Jul-01 18:33N 55°13' E 014°58'0 0.0
2015-Jul-01 17:30N 55°13' E 014°58'0 0.0
2015-Jul-01 16:33N 55°13' E 014°58'0 0.0
2015-Jul-01 15:33N 55°13' E 014°58'7 6.7
2015-Jul-01 14:33N 55°17' E 015°07'2 2.1
2015-Jul-01 13:33N 55°16' E 015°04'1 1.0
2015-Jul-01 12:33N 55°15' E 015°02'6 6.2
2015-Jul-01 11:33N 55°19' E 015°11'10 9.7
2015-Jul-01 10:33N 55°13' E 014°58'6 6.5
2015-Jul-01 09:33N 55°17' E 015°07'1 0.7
2015-Jul-01 08:33N 55°17' E 015°06'6 6.0
2015-Jul-01 07:33N 55°13' E 014°58'0 0.0
2015-Jul-01 06:33N 55°13' E 014°58'0 0.0
2015-Jul-01 05:33N 55°13' E 014°58'0 0.0
2015-Jul-01 04:33N 55°13' E 014°58'0 0.0
2015-Jul-01 03:33N 55°13' E 014°58'0 0.0
2015-Jul-01 02:33N 55°13' E 014°58'0 0.0
2015-Jul-01 01:33N 55°13' E 014°58'0 0.0
2015-Jul-01 00:33N 55°13' E 014°58'0 0.0
2015-Jun-30 23:33N 55°13' E 014°58'0 0.0
2015-Jun-30 22:33N 55°13' E 014°58'0 0.0
2015-Jun-30 21:33N 55°13' E 014°58'0 0.0
2015-Jun-30 20:33N 55°13' E 014°58'0 0.0
2015-Jun-30 19:33N 55°13' E 014°58'0 0.0
2015-Jun-30 18:33N 55°13' E 014°58'0 0.0
2015-Jun-30 17:33N 55°13' E 014°58'0 0.0
2015-Jun-30 16:33N 55°13' E 014°58'0 0.0
2015-Jun-30 15:33N 55°13' E 014°58'7 6.8
2015-Jun-30 14:33N 55°18' E 015°07'3 3.2
2015-Jun-30 13:33N 55°17' E 015°01'2 2.0
2015-Jun-30 12:33N 55°15' E 015°03'6 5.9
2015-Jun-30 11:33N 55°19' E 015°11'9 9.5
2015-Jun-30 10:33N 55°13' E 014°59'7 6.8
2015-Jun-30 09:33N 55°18' E 015°07'1 1.3
2015-Jun-30 08:33N 55°17' E 015°05'6 5.9
2015-Jun-30 07:33N 55°13' E 014°58'0 0.0
2015-Jun-30 06:33N 55°13' E 014°58'0 0.0
2015-Jun-30 05:33N 55°13' E 014°58'0 0.0
2015-Jun-30 04:33N 55°13' E 014°58'0 0.0
2015-Jun-30 03:33N 55°13' E 014°58'0 0.0
2015-Jun-30 02:33N 55°13' E 014°58'0 0.0
2015-Jun-30 01:33N 55°13' E 014°58'0 0.0
2015-Jun-30 00:33N 55°13' E 014°58'0 0.0
2015-Jun-29 23:33N 55°13' E 014°58'0 0.0
2015-Jun-29 22:33N 55°13' E 014°58'0 0.0
2015-Jun-29 21:33N 55°13' E 014°58'0 0.0
2015-Jun-29 20:33N 55°13' E 014°58'0 0.0
2015-Jun-29 19:33N 55°13' E 014°58'0 0.0
2015-Jun-29 18:33N 55°13' E 014°58'0 0.0
2015-Jun-29 17:33N 55°13' E 014°58'0 0.0
2015-Jun-29 16:33N 55°13' E 014°58'0 0.0
2015-Jun-29 15:33N 55°13' E 014°58'7 7.2
2015-Jun-29 14:33N 55°18' E 015°07'3 3.1
2015-Jun-29 13:33N 55°15' E 015°04'0 0.4
2015-Jun-29 12:33N 55°16' E 015°04'5 5.4
2015-Jun-29 11:33N 55°19' E 015°11'9 9.5
2015-Jun-29 10:33N 55°13' E 014°59'6 5.9
2015-Jun-29 09:33N 55°17' E 015°06'0 0.1
2015-Jun-29 08:33N 55°17' E 015°06'6 6.1
2015-Jun-29 07:33N 55°13' E 014°58'0 0.0
2015-Jun-29 06:33N 55°13' E 014°58'0 0.0
2015-Jun-29 05:33N 55°13' E 014°58'0 0.0
2015-Jun-29 04:33N 55°13' E 014°58'0 0.0
2015-Jun-29 03:32N 55°13' E 014°58'0 0.0
2015-Jun-29 02:33N 55°13' E 014°58'0 0.0
2015-Jun-29 01:33N 55°13' E 014°58'0 0.0
2015-Jun-29 00:33N 55°13' E 014°58'0 0.0
2015-Jun-28 23:33N 55°13' E 014°58'0 0.0
2015-Jun-28 22:33N 55°13' E 014°58'0 0.0
2015-Jun-28 21:33N 55°13' E 014°58'0 0.0
2015-Jun-28 20:33N 55°13' E 014°58'0 0.0
2015-Jun-28 19:33N 55°13' E 014°58'0 0.0
2015-Jun-28 18:34N 55°13' E 014°58'0 0.0
2015-Jun-28 17:33N 55°13' E 014°58'0 0.0
2015-Jun-28 16:33N 55°13' E 014°58'0 0.0
2015-Jun-28 15:33N 55°13' E 014°58'7 6.9
2015-Jun-28 14:33N 55°17' E 015°07'2 2.2
2015-Jun-28 13:33N 55°16' E 015°04'1 0.6
2015-Jun-28 12:33N 55°15' E 015°04'6 5.6
2015-Jun-28 11:33N 55°19' E 015°11'9 9.4
2015-Jun-28 10:33N 55°13' E 014°59'6 5.6
2015-Jun-28 09:33N 55°17' E 015°06'0 0.2
2015-Jun-28 08:33N 55°17' E 015°06'6 6.1
2015-Jun-28 07:33N 55°13' E 014°58'0 0.0
2015-Jun-28 06:33N 55°13' E 014°58'0 0.0
2015-Jun-28 05:33N 55°13' E 014°58'0 0.0
2015-Jun-28 04:33N 55°13' E 014°58'0 0.0
2015-Jun-28 03:33N 55°13' E 014°58'0 0.0
2015-Jun-28 02:33N 55°13' E 014°58'0 0.0
2015-Jun-28 01:33N 55°13' E 014°58'0 0.0
2015-Jun-28 00:33N 55°13' E 014°58'0 0.0
2015-Jun-27 23:33N 55°13' E 014°58'0 0.0
2015-Jun-27 22:33N 55°13' E 014°58'0 0.0
2015-Jun-27 21:33N 55°13' E 014°58'0 0.0
2015-Jun-27 20:33N 55°13' E 014°58'0 0.0
2015-Jun-27 19:33N 55°13' E 014°58'0 0.0
2015-Jun-27 18:33N 55°13' E 014°58'0 0.0
2015-Jun-27 17:33N 55°13' E 014°58'0 0.0
2015-Jun-27 16:33N 55°13' E 014°58'0 0.0
2015-Jun-27 15:33N 55°13' E 014°58'7 6.6
2015-Jun-27 14:33N 55°17' E 015°07'2 2.2
2015-Jun-27 13:33N 55°16' E 015°04'0 0.3
2015-Jun-27 12:33N 55°16' E 015°03'6 5.7
2015-Jun-27 11:34N 55°19' E 015°11'9 9.3
2015-Jun-27 10:33N 55°13' E 014°59'6 5.7
2015-Jun-27 09:33N 55°17' E 015°06'0 0.3
2015-Jun-27 08:33N 55°17' E 015°06'6 6.0
2015-Jun-27 07:33N 55°13' E 014°58'0 0.0
2015-Jun-27 06:33N 55°13' E 014°58'0 0.0
2015-Jun-27 05:33N 55°13' E 014°58'0 0.0
2015-Jun-27 04:33N 55°13' E 014°58'0 0.0
2015-Jun-27 03:33N 55°13' E 014°58'0 0.0
2015-Jun-27 02:33N 55°13' E 014°58'0 0.0
2015-Jun-27 01:33N 55°13' E 014°58'0 0.0
2015-Jun-27 00:33N 55°13' E 014°58'0 0.0
2015-Jun-26 23:33N 55°13' E 014°58'0 0.0
2015-Jun-26 22:33N 55°13' E 014°58'0 0.0
2015-Jun-26 21:33N 55°13' E 014°58'0 0.0
2015-Jun-26 20:33N 55°13' E 014°58'0 0.0
2015-Jun-26 19:33N 55°13' E 014°58'0 0.0
2015-Jun-26 18:33N 55°13' E 014°58'0 0.0
2015-Jun-26 17:33N 55°13' E 014°58'0 0.0
2015-Jun-26 16:33N 55°13' E 014°58'0 0.0
2015-Jun-26 15:33N 55°13' E 014°58'7 7.0
2015-Jun-26 14:33N 55°18' E 015°07'2 2.4
2015-Jun-26 13:33N 55°16' E 015°04'0 0.3
2015-Jun-26 12:33N 55°16' E 015°04'5 5.0
2015-Jun-26 11:33N 55°19' E 015°11'9 9.4
2015-Jun-26 10:33N 55°13' E 014°59'8 8.5
2015-Jun-26 09:33N 55°19' E 015°10'4 3.5
2015-Jun-26 08:33N 55°17' E 015°04'6 5.8
2015-Jun-26 07:33N 55°13' E 014°58'0 0.0
2015-Jun-26 06:33N 55°13' E 014°58'0 0.0
2015-Jun-26 05:33N 55°13' E 014°58'0 0.0
2015-Jun-26 04:33N 55°13' E 014°58'0 0.0
2015-Jun-26 03:33N 55°13' E 014°58'0 0.0
2015-Jun-26 02:33N 55°13' E 014°58'0 0.0
2015-Jun-26 01:33N 55°13' E 014°58'0 0.0
2015-Jun-26 00:33N 55°13' E 014°58'0 0.0
2015-Jun-25 23:33N 55°13' E 014°58'0 0.0
2015-Jun-25 22:33N 55°13' E 014°58'0 0.0
2015-Jun-25 21:33N 55°13' E 014°58'0 0.0
2015-Jun-25 20:33N 55°13' E 014°58'0 0.0
2015-Jun-25 19:33N 55°13' E 014°58'0 0.0
2015-Jun-25 18:33N 55°13' E 014°58'0 0.0
2015-Jun-25 17:32N 55°13' E 014°58'0 0.0
2015-Jun-25 16:33N 55°13' E 014°58'0 0.0
2015-Jun-25 15:33N 55°13' E 014°58'7 7.4
2015-Jun-25 14:33N 55°17' E 015°09'4 3.8
2015-Jun-25 13:33N 55°17' E 015°02'2 1.8
2015-Jun-25 12:33N 55°15' E 015°04'5 5.5
2015-Jun-25 11:33N 55°19' E 015°11'9 9.4
2015-Jun-25 10:33N 55°13' E 014°58'6 5.8
2015-Jun-25 09:33N 55°17' E 015°07'2 1.8
2015-Jun-25 08:33N 55°17' E 015°04'6 5.6
2015-Jun-25 07:33N 55°13' E 014°58'0 0.0
2015-Jun-25 06:33N 55°13' E 014°58'0 0.0
2015-Jun-25 05:33N 55°13' E 014°58'0 0.0
2015-Jun-25 04:33N 55°13' E 014°58'0 0.0
2015-Jun-25 03:33N 55°13' E 014°58'0 0.0
2015-Jun-25 01:33N 55°13' E 014°58'0 0.0
2015-Jun-25 00:33N 55°13' E 014°58'0 0.0
2015-Jun-24 23:33N 55°13' E 014°58'0 0.0
2015-Jun-24 06:21N 55°13' E 014°58'0 0.0
2015-Jun-24 05:33N 55°13' E 014°58'0 0.0
2015-Jun-24 04:33N 55°13' E 014°58'0 0.0
2015-Jun-24 03:33N 55°13' E 014°58'0 0.0
2015-Jun-24 02:33N 55°13' E 014°58'0 0.0
2015-Jun-24 01:33N 55°13' E 014°58'0 0.0
2015-Jun-24 00:33N 55°13' E 014°58'0 0.0
2015-Jun-23 23:33N 55°13' E 014°58'0 0.0
2015-Jun-23 22:33N 55°13' E 014°58'0 0.0
2015-Jun-23 21:33N 55°13' E 014°58'0 0.0
2015-Jun-23 20:33N 55°13' E 014°58'0 0.0
2015-Jun-23 19:33N 55°13' E 014°58'0 0.0
2015-Jun-23 19:05N 55°13' E 014°58'  

Dump ship's entire track history